createdAt,value
2022-12-09T00:02:14.393Z,11.07
2022-12-09T00:04:58.951Z,12.48
2022-12-09T00:07:51.608Z,11.60
2022-12-09T00:10:55.115Z,11.55
2022-12-09T00:13:43.210Z,13.25
2022-12-09T00:16:56.066Z,12.18
2022-12-09T00:23:20.627Z,10.40
2022-12-09T00:26:03.423Z,11.15
2022-12-09T00:29:14.271Z,12.00
2022-12-09T00:32:21.246Z,11.80
2022-12-09T00:34:59.004Z,10.18
2022-12-09T00:37:57.689Z,12.40
2022-12-09T00:40:49.827Z,10.85
2022-12-09T00:43:35.954Z,10.23
2022-12-09T00:46:56.099Z,10.40
2022-12-09T00:49:35.731Z,11.38
2022-12-09T00:55:41.619Z,9.60
2022-12-09T00:58:40.437Z,9.18
2022-12-09T01:04:43.383Z,10.40
2022-12-09T01:08:35.130Z,10.10
2022-12-09T01:11:47.447Z,9.23
2022-12-09T01:14:26.529Z,9.57
2022-12-09T01:17:04.569Z,10.13
2022-12-09T01:19:35.467Z,9.57
2022-12-09T01:22:41.803Z,8.50
2022-12-09T01:25:18.369Z,9.70
2022-12-09T01:27:58.628Z,9.50
2022-12-09T01:30:50.207Z,8.95
2022-12-09T01:36:59.858Z,9.70
2022-12-09T01:39:53.318Z,8.70
2022-12-09T01:42:36.122Z,9.75
2022-12-09T01:45:32.049Z,8.52
2022-12-09T01:48:33.891Z,9.57
2022-12-09T01:51:32.198Z,8.68
2022-12-09T01:54:18.376Z,10.20
2022-12-09T01:56:58.548Z,9.98
2022-12-09T01:59:38.966Z,9.40
2022-12-09T02:02:29.815Z,8.98
2022-12-09T02:06:00.221Z,8.63
2022-12-09T02:08:40.300Z,8.77
2022-12-09T02:11:39.320Z,8.93
2022-12-09T02:17:14.623Z,9.85
2022-12-09T02:20:47.571Z,9.65
2022-12-09T02:23:32.477Z,9.00
2022-12-09T02:26:54.590Z,10.55
2022-12-09T02:34:30.077Z,9.10
2022-12-09T02:37:58.480Z,8.27
2022-12-09T02:41:09.585Z,9.98
2022-12-09T02:47:13.426Z,8.73
2022-12-09T02:50:50.104Z,9.20
2022-12-09T02:54:13.384Z,9.52
2022-12-09T02:57:26.412Z,10.02
2022-12-09T03:00:02.819Z,8.40
2022-12-09T03:03:10.575Z,9.18
2022-12-09T03:06:27.148Z,8.30
2022-12-09T03:09:09.527Z,9.25
2022-12-09T03:12:09.008Z,9.25
2022-12-09T03:15:05.153Z,9.52
2022-12-09T03:17:37.812Z,8.43
2022-12-09T03:20:25.406Z,8.85
2022-12-09T03:22:57.779Z,8.90
2022-12-09T03:25:31.464Z,8.40
2022-12-09T03:28:05.458Z,9.68
2022-12-09T03:30:35.503Z,8.30
2022-12-09T03:33:04.477Z,10.40
2022-12-09T03:35:38.236Z,9.18
2022-12-09T03:38:11.487Z,8.45
2022-12-09T03:40:39.964Z,9.32
2022-12-09T03:43:19.280Z,9.40
2022-12-09T03:45:47.200Z,9.55
2022-12-09T03:48:14.664Z,8.20
2022-12-09T03:51:14.350Z,9.65
2022-12-09T03:53:45.148Z,8.55
2022-12-09T03:56:19.701Z,8.57
2022-12-09T03:58:48.538Z,8.15
2022-12-09T04:01:16.399Z,8.75
2022-12-09T04:03:47.913Z,9.23
2022-12-09T04:06:14.644Z,8.82
2022-12-09T04:08:42.048Z,8.00
2022-12-09T04:11:10.019Z,8.68
2022-12-09T04:13:36.669Z,9.20
2022-12-09T04:16:03.715Z,8.57
2022-12-09T04:18:30.568Z,8.32
2022-12-09T04:20:57.169Z,8.40
2022-12-09T04:23:23.888Z,7.97
2022-12-09T04:25:50.498Z,8.32
2022-12-09T04:28:17.224Z,8.65
2022-12-09T04:30:47.725Z,9.13
2022-12-09T04:33:14.637Z,9.55
2022-12-09T04:35:41.431Z,8.85
2022-12-09T04:38:08.491Z,7.47
2022-12-09T04:40:35.454Z,9.35
2022-12-09T04:43:01.971Z,8.27
2022-12-09T04:45:28.628Z,8.82
2022-12-09T04:47:55.277Z,9.02
2022-12-09T04:50:22.376Z,8.93
2022-12-09T04:52:48.933Z,7.85
2022-12-09T04:55:16.087Z,9.20
2022-12-09T04:57:43.029Z,8.40
2022-12-09T05:00:11.282Z,8.23
2022-12-09T05:02:38.964Z,8.35
2022-12-09T05:05:06.313Z,7.47
2022-12-09T05:07:33.614Z,8.20
2022-12-09T05:10:00.368Z,7.90
2022-12-09T05:12:27.120Z,8.10
2022-12-09T05:14:53.613Z,7.38
2022-12-09T05:17:20.373Z,7.80
2022-12-09T05:19:47.410Z,9.02
2022-12-09T05:22:17.188Z,8.60
2022-12-09T05:24:44.547Z,9.65
2022-12-09T05:27:12.070Z,7.38
2022-12-09T05:29:39.061Z,8.32
2022-12-09T05:32:06.437Z,9.93
2022-12-09T05:34:33.657Z,8.10
2022-12-09T05:37:00.732Z,8.48
2022-12-09T05:39:27.398Z,9.15
2022-12-09T05:41:54.405Z,11.20
2022-12-09T05:44:48.277Z,10.13
2022-12-09T05:47:18.383Z,8.35
2022-12-09T05:49:45.429Z,9.23
2022-12-09T05:52:14.559Z,8.30
2022-12-09T05:54:41.622Z,10.02
2022-12-09T05:57:08.650Z,9.55
2022-12-09T05:59:35.490Z,9.35
2022-12-09T06:02:08.338Z,9.48
2022-12-09T06:08:07.409Z,8.90
2022-12-09T06:10:38.576Z,8.90
2022-12-09T06:13:06.088Z,10.43
2022-12-09T06:15:34.454Z,8.88
2022-12-09T06:18:02.148Z,9.30
2022-12-09T06:20:29.201Z,8.30
2022-12-09T06:22:56.345Z,8.05
2022-12-09T06:25:24.775Z,8.65
2022-12-09T06:27:53.912Z,8.82
2022-12-09T06:30:21.023Z,8.30
2022-12-09T06:32:47.781Z,9.75
2022-12-09T06:35:15.402Z,10.07
2022-12-09T06:37:42.459Z,10.57
2022-12-09T06:40:10.337Z,10.25
2022-12-09T06:42:37.565Z,11.07
2022-12-09T06:45:04.838Z,12.13
2022-12-09T06:47:32.098Z,16.55
2022-12-09T06:50:06.760Z,13.63
2022-12-09T06:52:37.670Z,13.52
2022-12-09T06:55:06.405Z,10.85
2022-12-09T06:57:33.457Z,11.40
2022-12-09T07:00:01.910Z,10.90
2022-12-09T07:02:36.157Z,11.48
2022-12-09T07:05:04.222Z,9.68
2022-12-09T07:07:31.621Z,10.32
2022-12-09T07:09:58.861Z,12.27
2022-12-09T07:12:25.431Z,10.05
2022-12-09T07:14:52.108Z,9.98
2022-12-09T07:17:20.703Z,8.65
2022-12-09T07:19:52.113Z,8.57
2022-12-09T07:22:19.091Z,9.52
2022-12-09T07:24:46.350Z,8.48
2022-12-09T07:27:19.352Z,9.40
2022-12-09T07:29:47.272Z,9.25
2022-12-09T07:32:14.790Z,10.57
2022-12-09T07:34:42.086Z,10.20
2022-12-09T07:37:09.221Z,9.68
2022-12-09T07:39:36.105Z,10.15
2022-12-09T07:42:03.068Z,9.18
2022-12-09T07:44:31.009Z,9.52
2022-12-09T07:46:58.431Z,9.73
2022-12-09T07:49:25.854Z,8.32
2022-12-09T07:51:52.812Z,10.10
2022-12-09T07:54:20.630Z,10.88
2022-12-09T07:56:48.157Z,9.00
2022-12-09T07:59:17.114Z,10.15
2022-12-09T08:01:44.620Z,9.80
2022-12-09T08:04:12.181Z,11.30
2022-12-09T08:06:39.426Z,11.10
2022-12-09T08:09:10.335Z,10.57
2022-12-09T08:11:37.524Z,12.48
2022-12-09T08:14:11.377Z,12.35
2022-12-09T08:16:39.484Z,11.35
2022-12-09T08:19:32.264Z,12.57
2022-12-09T08:21:59.176Z,15.45
2022-12-09T08:24:26.705Z,12.63
2022-12-09T08:26:53.477Z,11.00
2022-12-09T08:29:20.759Z,9.98
2022-12-09T08:31:48.168Z,11.02
2022-12-09T08:34:15.370Z,10.90
2022-12-09T08:36:42.620Z,8.73
2022-12-09T08:39:10.940Z,10.43
2022-12-09T08:41:39.137Z,9.32
2022-12-09T08:44:12.263Z,9.85
2022-12-09T08:46:42.126Z,7.97
2022-12-09T08:49:12.618Z,11.77
2022-12-09T08:51:40.418Z,10.25
2022-12-09T08:54:07.672Z,11.30
2022-12-09T08:57:03.115Z,10.05
2022-12-09T08:59:30.194Z,8.73
2022-12-09T09:01:57.192Z,10.85
2022-12-09T09:04:24.400Z,10.25
2022-12-09T09:06:57.093Z,9.70
2022-12-09T09:09:27.027Z,12.32
2022-12-09T09:11:57.304Z,9.68
2022-12-09T09:14:44.009Z,9.80
2022-12-09T09:17:13.570Z,10.52
2022-12-09T09:19:40.170Z,10.30
2022-12-09T09:22:11.866Z,10.25
2022-12-09T09:25:13.717Z,10.63
2022-12-09T09:28:06.912Z,8.75
2022-12-09T09:30:34.737Z,8.38
2022-12-09T09:33:25.062Z,9.02
2022-12-09T09:36:18.809Z,8.95
2022-12-09T09:38:50.010Z,10.63
2022-12-09T09:41:48.133Z,10.20
2022-12-09T09:44:40.411Z,11.43
2022-12-09T09:47:25.855Z,8.10
2022-12-09T09:50:22.145Z,10.82
2022-12-09T09:52:52.536Z,9.55
2022-12-09T09:55:29.913Z,8.88
2022-12-09T09:58:02.198Z,9.73
2022-12-09T10:00:36.007Z,9.70
2022-12-09T10:03:20.939Z,10.32
2022-12-09T10:05:55.535Z,10.65
2022-12-09T10:08:35.079Z,8.98
2022-12-09T10:11:13.047Z,10.27
2022-12-09T10:14:15.064Z,9.60
2022-12-09T10:16:59.845Z,9.57
2022-12-09T10:19:36.197Z,9.50
2022-12-09T10:22:13.681Z,9.93
2022-12-09T10:24:53.478Z,10.68
2022-12-09T10:27:45.979Z,11.45
2022-12-09T10:30:20.767Z,11.40
2022-12-09T10:33:12.718Z,10.35
2022-12-09T10:35:41.515Z,10.70
2022-12-09T10:38:14.853Z,11.50
2022-12-09T10:41:00.550Z,11.18
2022-12-09T10:43:43.386Z,10.35
2022-12-09T10:46:43.467Z,10.55
2022-12-09T10:49:25.642Z,11.05
2022-12-09T10:51:57.460Z,10.93
2022-12-09T10:54:39.365Z,10.52
2022-12-09T10:57:12.667Z,10.52
2022-12-09T10:59:41.684Z,11.20
2022-12-09T11:02:08.798Z,10.07
2022-12-09T11:04:41.966Z,10.93
2022-12-09T11:07:22.915Z,10.88
2022-12-09T11:10:03.038Z,11.23
2022-12-09T11:12:41.109Z,10.18
2022-12-09T11:15:41.264Z,11.18
2022-12-09T11:18:21.479Z,11.18
2022-12-09T11:21:00.907Z,11.27
2022-12-09T11:23:33.832Z,10.68
2022-12-09T11:26:04.624Z,10.02
2022-12-09T11:28:40.281Z,13.23
2022-12-09T11:31:33.769Z,11.60
2022-12-09T11:34:14.638Z,11.73
2022-12-09T11:36:52.312Z,10.48
2022-12-09T11:39:31.425Z,10.25
2022-12-09T11:42:17.709Z,10.98
2022-12-09T11:44:58.621Z,10.40
2022-12-09T11:48:22.595Z,11.73
2022-12-09T11:50:34.216Z,10.68
2022-12-09T11:53:23.148Z,10.32
2022-12-09T11:56:11.236Z,10.30
2022-12-09T11:58:46.227Z,10.75
2022-12-09T12:01:20.302Z,10.52
2022-12-09T12:03:55.057Z,10.40
2022-12-09T12:06:47.468Z,11.15
2022-12-09T12:09:26.516Z,10.98
2022-12-09T12:12:09.569Z,11.07
2022-12-09T12:14:41.193Z,11.10
2022-12-09T12:17:15.514Z,11.52
2022-12-09T12:19:43.680Z,11.13
2022-12-09T12:22:35.867Z,11.73
2022-12-09T12:25:33.409Z,11.05
2022-12-09T12:28:27.703Z,11.05
2022-12-09T12:31:06.019Z,11.45
2022-12-09T12:37:05.992Z,10.63
2022-12-09T12:39:57.814Z,9.63
2022-12-09T12:43:28.766Z,10.27
2022-12-09T12:46:17.261Z,10.05
2022-12-09T12:49:16.879Z,11.07
2022-12-09T12:51:54.068Z,11.00
2022-12-09T12:54:39.628Z,10.77
2022-12-09T12:57:36.531Z,10.10
2022-12-09T13:00:09.245Z,10.93
2022-12-09T13:02:59.284Z,10.07
2022-12-09T13:05:33.889Z,10.05
2022-12-09T13:08:34.958Z,11.65
2022-12-09T13:11:09.568Z,9.88
2022-12-09T13:13:46.613Z,9.73
2022-12-09T13:16:27.940Z,10.93
2022-12-09T13:19:06.847Z,10.02
2022-12-09T13:21:33.981Z,9.57
2022-12-09T13:24:13.483Z,9.93
2022-12-09T13:27:12.756Z,10.40
2022-12-09T13:30:01.194Z,10.23
2022-12-09T13:32:33.855Z,10.65
2022-12-09T13:35:13.524Z,11.23
2022-12-09T13:37:42.775Z,9.43
2022-12-09T13:43:01.446Z,11.02
2022-12-09T13:45:48.761Z,10.45
2022-12-09T13:48:17.440Z,9.30
2022-12-09T13:50:57.321Z,10.30
2022-12-09T13:54:07.002Z,10.95
2022-12-09T13:56:44.045Z,11.32
2022-12-09T13:59:29.261Z,11.63
2022-12-09T14:02:13.155Z,11.75
2022-12-09T14:04:53.845Z,9.73
2022-12-09T14:07:29.257Z,11.75
2022-12-09T14:09:57.797Z,11.05
2022-12-09T14:12:28.175Z,10.57
2022-12-09T14:14:59.052Z,10.40
2022-12-09T14:17:25.575Z,11.63
2022-12-09T14:20:01.125Z,10.32
2022-12-09T14:22:30.410Z,10.32
2022-12-09T14:27:29.297Z,9.60
2022-12-09T14:30:22.858Z,10.55
2022-12-09T14:32:49.290Z,10.43
2022-12-09T14:35:15.688Z,10.77
2022-12-09T14:37:57.835Z,11.38
2022-12-09T14:40:53.546Z,10.88
2022-12-09T14:43:40.011Z,10.68
2022-12-09T14:46:20.607Z,9.98
2022-12-09T14:49:17.582Z,11.52
2022-12-09T14:51:48.758Z,10.60
2022-12-09T14:54:32.756Z,10.20
2022-12-09T14:57:06.795Z,10.20
2022-12-09T14:59:34.344Z,11.10
2022-12-09T15:02:22.518Z,10.35
2022-12-09T15:04:50.672Z,10.80
2022-12-09T15:07:20.242Z,10.18
2022-12-09T15:09:54.008Z,9.40
2022-12-09T15:12:24.973Z,10.60
2022-12-09T15:14:57.363Z,9.95
2022-12-09T15:17:37.769Z,10.57
2022-12-09T15:20:06.181Z,10.35
2022-12-09T15:22:33.338Z,13.48
2022-12-09T15:25:02.408Z,13.52
2022-12-09T15:27:29.167Z,13.35
2022-12-09T15:29:55.797Z,13.82
2022-12-09T15:32:28.753Z,14.40
2022-12-09T15:34:55.963Z,14.02
2022-12-09T15:37:28.131Z,15.88
2022-12-09T15:40:10.945Z,14.63
2022-12-09T15:42:42.503Z,13.10
2022-12-09T15:45:11.571Z,15.23
2022-12-09T15:48:13.467Z,14.32
2022-12-09T15:51:03.273Z,13.73
2022-12-09T15:53:42.987Z,13.55
2022-12-09T15:56:18.727Z,14.43
2022-12-09T15:58:50.132Z,12.98
2022-12-09T16:01:30.062Z,14.27
2022-12-09T16:03:58.929Z,13.32
2022-12-09T16:06:29.626Z,13.32
2022-12-09T16:08:56.773Z,12.95
2022-12-09T16:11:43.812Z,14.05
2022-12-09T16:16:50.110Z,12.40
2022-12-09T16:19:41.477Z,13.20
2022-12-09T16:22:18.819Z,13.02
2022-12-09T16:25:13.572Z,13.77
2022-12-09T16:27:39.947Z,13.00
2022-12-09T16:30:19.027Z,13.60
2022-12-09T16:32:51.350Z,13.70
2022-12-09T16:35:17.827Z,14.00
2022-12-09T16:37:59.417Z,13.52
2022-12-09T16:40:25.900Z,12.88
2022-12-09T16:42:54.933Z,15.25
2022-12-09T16:45:32.101Z,14.05
2022-12-09T16:47:59.725Z,14.65
2022-12-09T16:50:30.548Z,15.52
2022-12-09T16:52:58.528Z,16.13
2022-12-09T16:55:27.341Z,16.92
2022-12-09T16:58:00.340Z,16.13
2022-12-09T17:00:26.936Z,14.40
2022-12-09T17:03:04.749Z,14.85
2022-12-09T17:05:31.543Z,13.43
2022-12-09T17:07:58.307Z,16.15
2022-12-09T17:10:25.055Z,14.45
2022-12-09T17:12:51.556Z,14.90
2022-12-09T17:15:20.202Z,14.32
2022-12-09T17:17:48.786Z,13.52
2022-12-09T17:20:16.403Z,13.98
2022-12-09T17:22:43.193Z,12.75
2022-12-09T17:25:10.295Z,14.40
2022-12-09T17:27:37.416Z,14.27
2022-12-09T17:30:04.965Z,13.85
2022-12-09T17:32:31.539Z,13.98
2022-12-09T17:34:58.155Z,16.15
2022-12-09T17:37:24.630Z,16.13
2022-12-09T17:39:55.679Z,15.48
2022-12-09T17:42:26.545Z,15.05
2022-12-09T17:44:52.988Z,14.80
2022-12-09T17:47:19.422Z,18.45
2022-12-09T17:49:45.896Z,17.08
2022-12-09T17:52:13.230Z,16.08
2022-12-09T17:54:39.731Z,17.13
2022-12-09T17:57:06.250Z,16.25
2022-12-09T17:59:32.966Z,16.98
2022-12-09T18:01:59.519Z,16.13
2022-12-09T18:04:26.255Z,15.30
2022-12-09T18:06:52.747Z,12.95
2022-12-09T18:09:19.870Z,13.32
2022-12-09T18:11:46.834Z,14.80
2022-12-09T18:14:14.057Z,15.15
2022-12-09T18:16:40.678Z,13.98
2022-12-09T18:19:12.438Z,15.77
2022-12-09T18:21:39.011Z,14.88
2022-12-09T18:24:05.814Z,15.95
2022-12-09T18:26:36.800Z,17.27
2022-12-09T18:29:08.169Z,18.17
2022-12-09T18:31:35.050Z,16.75
2022-12-09T18:34:01.560Z,15.25
2022-12-09T18:36:29.010Z,15.55
2022-12-09T18:38:58.049Z,16.23
2022-12-09T18:41:27.483Z,15.32
2022-12-09T18:46:25.649Z,16.02
2022-12-09T18:49:00.898Z,17.27
2022-12-09T18:51:28.523Z,17.70
2022-12-09T18:53:57.232Z,17.13
2022-12-09T18:56:23.987Z,17.05
2022-12-09T18:59:05.822Z,18.60
2022-12-09T19:01:34.050Z,26.95
2022-12-09T19:04:02.635Z,25.05
2022-12-09T19:06:30.403Z,24.08
2022-12-09T19:08:59.395Z,21.33
2022-12-09T19:11:28.942Z,17.80
2022-12-09T19:13:55.859Z,19.08
2022-12-09T19:16:23.037Z,18.63
2022-12-09T19:18:50.181Z,17.92
2022-12-09T19:21:19.325Z,16.65
2022-12-09T19:23:46.665Z,18.38
2022-12-09T19:26:17.951Z,21.30
2022-12-09T19:28:55.723Z,20.75
2022-12-09T19:31:24.801Z,21.33
2022-12-09T19:33:55.726Z,19.65
2022-12-09T19:36:23.858Z,18.27
2022-12-09T19:38:50.974Z,16.52
2022-12-09T19:41:17.978Z,20.33
2022-12-09T19:43:45.407Z,16.23
2022-12-09T19:46:13.758Z,20.30
2022-12-09T19:48:44.222Z,17.17
2022-12-09T19:51:14.493Z,18.13
2022-12-09T19:53:41.561Z,16.00
2022-12-09T19:56:17.434Z,17.63
2022-12-09T19:58:45.221Z,16.92
2022-12-09T20:01:23.144Z,17.88
2022-12-09T20:03:56.953Z,14.50
2022-12-09T20:06:23.916Z,17.10
2022-12-09T20:08:50.393Z,16.63
2022-12-09T20:11:19.863Z,15.30
2022-12-09T20:16:16.346Z,13.95
2022-12-09T20:18:43.243Z,14.60
2022-12-09T20:21:11.707Z,14.52
2022-12-09T20:23:39.827Z,14.68
2022-12-09T20:26:13.225Z,15.88
2022-12-09T20:28:41.690Z,17.13
2022-12-09T20:31:14.440Z,17.92
2022-12-09T20:33:41.620Z,19.25
2022-12-09T20:36:15.670Z,19.35
2022-12-09T20:38:43.328Z,17.63
2022-12-09T20:41:12.727Z,17.75
2022-12-09T20:43:43.714Z,15.13
2022-12-09T20:46:19.711Z,17.35
2022-12-09T20:48:47.118Z,17.05
2022-12-09T20:51:17.221Z,17.50
2022-12-09T20:53:45.505Z,17.90
2022-12-09T20:56:13.234Z,15.48
2022-12-09T20:58:41.206Z,15.88
2022-12-09T21:01:19.489Z,16.42
2022-12-09T21:03:47.923Z,14.18
2022-12-09T21:06:15.912Z,14.57
2022-12-09T21:08:43.151Z,14.77
2022-12-09T21:11:12.175Z,13.88
2022-12-09T21:13:41.075Z,15.55
2022-12-09T21:16:16.835Z,13.80
2022-12-09T21:18:43.622Z,14.98
2022-12-09T21:21:10.091Z,15.18
2022-12-09T21:23:37.560Z,15.38
2022-12-09T21:26:09.302Z,15.38
2022-12-09T21:28:37.352Z,14.38
2022-12-09T21:31:07.769Z,14.98
2022-12-09T21:33:35.409Z,14.57
2022-12-09T21:36:05.596Z,14.93
2022-12-09T21:38:32.059Z,16.02
2022-12-09T21:41:05.722Z,16.13
2022-12-09T21:43:33.660Z,15.38
2022-12-09T21:46:13.441Z,15.90
2022-12-09T21:48:41.844Z,17.52
2022-12-09T21:51:10.762Z,19.85
2022-12-09T21:53:37.663Z,20.73
2022-12-09T21:56:06.652Z,17.90
2022-12-09T21:58:39.150Z,16.50
2022-12-09T22:01:11.516Z,16.83
2022-12-09T22:03:38.478Z,16.45
2022-12-09T22:06:05.957Z,17.95
2022-12-09T22:08:32.510Z,16.50
2022-12-09T22:10:59.970Z,18.38
2022-12-09T22:13:27.296Z,16.67
2022-12-09T22:15:53.984Z,16.92
2022-12-09T22:18:20.632Z,16.50
2022-12-09T22:21:22.916Z,16.60
2022-12-09T22:23:34.572Z,15.57
2022-12-09T22:26:05.379Z,15.95
2022-12-09T22:28:32.431Z,14.45
2022-12-09T22:30:58.932Z,14.63
2022-12-09T22:33:25.506Z,14.18
2022-12-09T22:35:52.119Z,15.60
2022-12-09T22:38:18.600Z,15.80
2022-12-09T22:40:45.625Z,14.70
2022-12-09T22:43:12.063Z,15.45
2022-12-09T22:45:38.876Z,15.52
2022-12-09T22:48:05.815Z,15.68
2022-12-09T22:50:35.301Z,14.40
2022-12-09T22:53:02.113Z,15.35
2022-12-09T22:55:28.515Z,13.18
2022-12-09T22:57:56.614Z,13.82
2022-12-09T23:00:23.112Z,15.05
2022-12-09T23:02:49.660Z,14.68
2022-12-09T23:05:16.258Z,13.10
2022-12-09T23:07:42.786Z,14.43
2022-12-09T23:10:10.726Z,15.75
2022-12-09T23:12:37.308Z,14.30
2022-12-09T23:15:04.490Z,14.98
2022-12-09T23:17:30.970Z,14.23
2022-12-09T23:19:57.521Z,16.40
2022-12-09T23:22:24.200Z,15.45
2022-12-09T23:24:50.712Z,13.60
2022-12-09T23:27:17.199Z,15.43
2022-12-09T23:29:44.340Z,15.38
2022-12-09T23:32:10.770Z,16.48
2022-12-09T23:34:37.199Z,15.73
2022-12-09T23:37:03.779Z,16.90
2022-12-09T23:39:30.222Z,15.82
2022-12-09T23:41:56.657Z,15.30
2022-12-09T23:44:23.223Z,15.82
2022-12-09T23:46:50.307Z,13.88
2022-12-09T23:49:17.067Z,15.73
2022-12-09T23:51:44.439Z,15.13
2022-12-09T23:54:14.324Z,14.25
2022-12-09T23:56:43.927Z,14.93
2022-12-09T23:59:13.571Z,14.75
